createdAt,value
2023-04-30T00:00:13.056Z,0.28
2023-04-30T00:02:44.771Z,0.50
2023-04-30T00:05:16.355Z,0.40
2023-04-30T00:07:48.156Z,0.77
2023-04-30T00:10:19.642Z,0.93
2023-04-30T00:12:51.134Z,0.50
2023-04-30T00:15:22.607Z,0.73
2023-04-30T00:17:54.139Z,0.32
2023-04-30T00:20:25.617Z,0.32
2023-04-30T00:22:57.222Z,0.90
2023-04-30T00:25:28.686Z,0.52
2023-04-30T00:28:00.520Z,0.40
2023-04-30T00:30:31.992Z,0.50
2023-04-30T00:33:03.838Z,0.82
2023-04-30T00:35:35.352Z,0.30
2023-04-30T00:38:06.831Z,0.50
2023-04-30T00:40:38.870Z,0.38
2023-04-30T00:43:10.351Z,0.50
2023-04-30T00:45:42.108Z,0.40
2023-04-30T00:48:13.613Z,0.40
2023-04-30T00:50:45.470Z,0.60
2023-04-30T00:53:16.951Z,0.38
2023-04-30T00:55:48.753Z,0.50
2023-04-30T00:58:20.210Z,0.90
2023-04-30T01:00:51.986Z,0.40
2023-04-30T01:03:23.729Z,0.68
2023-04-30T01:05:55.323Z,0.63
2023-04-30T01:08:26.796Z,0.70
2023-04-30T01:10:58.706Z,0.50
2023-04-30T01:13:30.173Z,0.85
2023-04-30T01:16:02.026Z,0.60
2023-04-30T01:18:33.591Z,0.82
2023-04-30T01:21:05.458Z,0.60
2023-04-30T01:23:36.919Z,1.15
2023-04-30T01:26:08.392Z,1.00
2023-04-30T01:28:39.870Z,0.47
2023-04-30T01:31:11.725Z,0.90
2023-04-30T01:33:43.197Z,0.63
2023-04-30T01:36:14.969Z,0.52
2023-04-30T01:38:46.435Z,0.95
2023-04-30T01:41:17.897Z,0.43
2023-04-30T01:43:49.385Z,0.50
2023-04-30T01:46:20.938Z,0.73
2023-04-30T01:48:52.413Z,0.45
2023-04-30T01:51:24.256Z,0.70
2023-04-30T01:53:55.706Z,0.52
2023-04-30T01:56:27.529Z,0.95
2023-04-30T01:58:58.997Z,0.77
2023-04-30T02:01:30.914Z,0.60
2023-04-30T02:04:02.539Z,0.70
2023-04-30T02:06:34.582Z,0.70
2023-04-30T02:09:06.109Z,0.50
2023-04-30T02:11:37.746Z,0.70
2023-04-30T02:14:09.216Z,0.85
2023-04-30T02:16:40.767Z,0.70
2023-04-30T02:19:12.298Z,0.40
2023-04-30T02:21:44.235Z,0.52
2023-04-30T02:24:15.767Z,0.50
2023-04-30T02:26:47.473Z,0.50
2023-04-30T02:29:18.952Z,0.40
2023-04-30T02:31:50.444Z,0.70
2023-04-30T02:34:21.921Z,0.77
2023-04-30T02:36:53.386Z,0.80
2023-04-30T02:39:24.831Z,0.47
2023-04-30T02:41:56.297Z,0.73
2023-04-30T02:44:27.755Z,0.63
2023-04-30T02:46:59.485Z,0.73
2023-04-30T02:49:30.918Z,0.45
2023-04-30T02:52:02.696Z,0.60
2023-04-30T02:54:34.136Z,0.50
2023-04-30T02:57:06.020Z,0.52
2023-04-30T02:59:37.467Z,0.63
2023-04-30T03:02:09.568Z,0.50
2023-04-30T03:04:41.062Z,1.02
2023-04-30T03:07:12.806Z,0.57
2023-04-30T03:09:44.253Z,0.30
2023-04-30T03:12:15.964Z,0.30
2023-04-30T03:14:47.411Z,0.70
2023-04-30T03:17:19.047Z,0.98
2023-04-30T03:19:50.550Z,0.50
2023-04-30T03:22:22.278Z,0.52
2023-04-30T03:24:53.720Z,0.82
2023-04-30T03:27:25.478Z,1.00
2023-04-30T03:29:57.085Z,0.60
2023-04-30T03:32:29.107Z,0.50
2023-04-30T03:35:00.608Z,0.57
2023-04-30T03:37:32.361Z,0.88
2023-04-30T03:40:03.817Z,1.00
2023-04-30T03:42:35.554Z,0.82
2023-04-30T03:45:07.004Z,0.90
2023-04-30T03:47:38.813Z,0.43
2023-04-30T03:50:10.282Z,0.75
2023-04-30T03:52:42.113Z,0.88
2023-04-30T03:55:13.581Z,0.52
2023-04-30T03:57:45.337Z,0.90
2023-04-30T04:00:16.808Z,0.73
2023-04-30T04:02:48.502Z,0.57
2023-04-30T04:05:20.021Z,0.85
2023-04-30T04:07:51.540Z,0.88
2023-04-30T04:10:22.988Z,0.88
2023-04-30T04:12:54.955Z,0.43
2023-04-30T04:15:26.449Z,0.70
2023-04-30T04:17:58.240Z,0.43
2023-04-30T04:20:29.785Z,1.30
2023-04-30T04:23:01.513Z,0.80
2023-04-30T04:25:32.957Z,0.50
2023-04-30T04:28:04.688Z,0.50
2023-04-30T04:30:36.202Z,0.77
2023-04-30T04:33:08.018Z,0.60
2023-04-30T04:35:39.496Z,1.05
2023-04-30T04:38:11.601Z,0.30
2023-04-30T04:40:43.085Z,0.60
2023-04-30T04:43:15.016Z,0.40
2023-04-30T04:45:46.487Z,0.83
2023-04-30T04:48:18.321Z,0.68
2023-04-30T04:50:49.811Z,0.82
2023-04-30T04:53:21.601Z,1.08
2023-04-30T04:55:53.065Z,0.80
2023-04-30T04:58:25.111Z,1.00
2023-04-30T05:00:56.669Z,0.50
2023-04-30T05:03:28.618Z,0.65
2023-04-30T05:06:00.279Z,0.83
2023-04-30T05:08:32.156Z,0.98
2023-04-30T05:11:03.629Z,1.23
2023-04-30T05:13:35.445Z,0.68
2023-04-30T05:16:06.907Z,1.10
2023-04-30T05:18:38.744Z,0.88
2023-04-30T05:21:10.300Z,0.70
2023-04-30T05:23:42.121Z,0.75
2023-04-30T05:26:13.590Z,0.70
2023-04-30T05:28:45.530Z,0.90
2023-04-30T05:31:17.817Z,1.00
2023-04-30T05:33:50.506Z,0.90
2023-04-30T05:36:21.976Z,0.95
2023-04-30T05:38:53.929Z,0.60
2023-04-30T05:41:25.446Z,1.30
2023-04-30T05:43:57.275Z,0.80
2023-04-30T05:46:28.977Z,1.20
2023-04-30T05:49:01.014Z,1.00
2023-04-30T05:51:33.241Z,1.40
2023-04-30T05:54:05.096Z,0.90
2023-04-30T05:56:36.585Z,1.02
2023-04-30T05:59:08.421Z,0.57
2023-04-30T06:01:39.979Z,0.65
2023-04-30T06:04:12.034Z,0.88
2023-04-30T06:06:43.656Z,1.10
2023-04-30T06:09:15.644Z,0.88
2023-04-30T06:11:47.124Z,0.60
2023-04-30T06:14:19.137Z,0.90
2023-04-30T06:16:50.668Z,1.17
2023-04-30T06:19:22.370Z,0.70
2023-04-30T06:21:53.897Z,1.10
2023-04-30T06:24:25.735Z,0.90
2023-04-30T06:26:57.223Z,0.82
2023-04-30T06:29:28.810Z,1.10
2023-04-30T06:32:00.253Z,0.82
2023-04-30T06:34:32.125Z,0.57
2023-04-30T06:37:03.716Z,0.77
2023-04-30T06:39:35.664Z,0.82
2023-04-30T06:42:07.108Z,0.88
2023-04-30T06:44:38.878Z,0.70
2023-04-30T06:47:10.388Z,0.70
2023-04-30T06:49:42.288Z,0.82
2023-04-30T06:52:13.774Z,1.13
2023-04-30T06:54:45.532Z,0.80
2023-04-30T06:57:17.051Z,0.98
2023-04-30T06:59:48.878Z,0.70
2023-04-30T07:02:22.033Z,0.65
2023-04-30T07:04:53.970Z,0.75
2023-04-30T07:07:25.433Z,0.93
2023-04-30T07:09:57.584Z,0.95
2023-04-30T07:12:29.275Z,0.60
2023-04-30T07:15:01.009Z,1.02
2023-04-30T07:17:32.558Z,0.60
2023-04-30T07:20:04.392Z,0.85
2023-04-30T07:22:35.856Z,0.90
2023-04-30T07:25:07.535Z,0.98
2023-04-30T07:27:38.997Z,0.77
2023-04-30T07:30:10.709Z,1.00
2023-04-30T07:32:42.201Z,1.00
2023-04-30T07:35:13.844Z,0.80
2023-04-30T07:37:45.396Z,0.90
2023-04-30T07:40:25.356Z,0.60
2023-04-30T07:43:06.703Z,0.93
2023-04-30T07:45:38.589Z,1.00
2023-04-30T07:48:10.136Z,1.23
2023-04-30T07:50:41.807Z,0.68
2023-04-30T07:53:13.759Z,0.93
2023-04-30T07:55:45.255Z,0.88
2023-04-30T07:58:17.069Z,0.95
2023-04-30T08:00:48.597Z,0.70
2023-04-30T08:03:20.595Z,0.82
2023-04-30T08:05:52.178Z,0.77
2023-04-30T08:08:23.652Z,0.57
2023-04-30T08:10:55.114Z,0.90
2023-04-30T08:13:26.999Z,0.35
2023-04-30T08:15:58.480Z,0.70
2023-04-30T08:18:30.339Z,0.68
2023-04-30T08:21:01.782Z,0.70
2023-04-30T08:23:33.654Z,0.60
2023-04-30T08:26:05.135Z,0.70
2023-04-30T08:28:36.832Z,0.88
2023-04-30T08:31:08.343Z,0.32
2023-04-30T08:33:40.195Z,1.00
2023-04-30T08:36:11.653Z,0.50
2023-04-30T08:38:43.674Z,0.85
2023-04-30T08:41:15.117Z,0.80
2023-04-30T08:43:46.913Z,0.80
2023-04-30T08:46:18.403Z,0.77
2023-04-30T08:48:49.905Z,0.80
2023-04-30T08:51:21.474Z,0.70
2023-04-30T08:53:53.078Z,0.80
2023-04-30T08:56:25.482Z,1.02
2023-04-30T08:58:57.154Z,0.95
2023-04-30T09:01:28.700Z,1.00
2023-04-30T09:04:00.545Z,1.00
2023-04-30T09:06:32.118Z,0.60
2023-04-30T09:09:03.654Z,0.75
2023-04-30T09:11:35.107Z,0.90
2023-04-30T09:14:06.603Z,0.80
2023-04-30T09:16:38.066Z,0.95
2023-04-30T09:19:09.544Z,0.98
2023-04-30T09:21:41.006Z,0.90
2023-04-30T09:24:12.612Z,0.90
2023-04-30T09:26:44.116Z,0.70
2023-04-30T09:29:16.106Z,1.10
2023-04-30T09:31:47.710Z,1.00
2023-04-30T09:34:19.709Z,0.88
2023-04-30T09:36:51.190Z,0.80
2023-04-30T09:39:22.948Z,0.93
2023-04-30T09:41:54.414Z,1.08
2023-04-30T09:44:25.938Z,0.93
2023-04-30T09:46:57.502Z,0.80
2023-04-30T09:49:29.585Z,0.90
2023-04-30T09:52:01.181Z,0.68
2023-04-30T09:54:32.872Z,0.70
2023-04-30T09:57:04.367Z,0.70
2023-04-30T09:59:36.172Z,0.65
2023-04-30T10:02:07.635Z,0.70
2023-04-30T10:04:39.420Z,0.65
2023-04-30T10:07:12.079Z,0.70
2023-04-30T10:09:45.279Z,0.95
2023-04-30T10:12:16.755Z,0.70
2023-04-30T10:14:48.598Z,0.80
2023-04-30T10:17:20.113Z,0.90
2023-04-30T10:19:51.632Z,0.73
2023-04-30T10:22:23.154Z,0.90
2023-04-30T10:24:54.688Z,0.82
2023-04-30T10:27:26.196Z,0.93
2023-04-30T10:29:58.212Z,0.88
2023-04-30T10:32:29.950Z,0.70
2023-04-30T10:35:01.908Z,1.02
2023-04-30T10:37:33.372Z,0.85
2023-04-30T10:40:05.217Z,1.00
2023-04-30T10:42:36.834Z,0.88
2023-04-30T10:45:08.613Z,0.70
2023-04-30T10:47:40.270Z,0.98
2023-04-30T10:50:12.090Z,0.63
2023-04-30T10:52:43.545Z,1.00
2023-04-30T10:55:15.068Z,1.02
2023-04-30T10:57:46.550Z,0.98
2023-04-30T11:00:18.406Z,0.70
2023-04-30T11:02:50.035Z,0.85
2023-04-30T11:05:21.581Z,1.00
2023-04-30T11:07:53.098Z,1.17
2023-04-30T11:10:25.819Z,0.90
2023-04-30T11:12:57.803Z,0.85
2023-04-30T11:15:30.087Z,0.80
2023-04-30T11:18:01.942Z,0.93
2023-04-30T11:20:33.440Z,1.23
2023-04-30T11:23:05.259Z,0.95
2023-04-30T11:25:36.704Z,0.90
2023-04-30T11:28:08.167Z,1.00
2023-04-30T11:30:39.644Z,0.60
2023-04-30T11:33:11.324Z,0.90
2023-04-30T11:35:42.812Z,0.70
2023-04-30T11:38:14.529Z,0.88
2023-04-30T11:40:45.978Z,1.10
2023-04-30T11:43:17.792Z,1.08
2023-04-30T11:45:49.271Z,0.70
2023-04-30T11:48:21.420Z,0.90
2023-04-30T11:50:52.917Z,0.68
2023-04-30T11:53:24.777Z,0.85
2023-04-30T11:55:56.258Z,0.93
2023-04-30T11:58:28.038Z,0.75
2023-04-30T12:00:59.539Z,1.05
2023-04-30T12:03:31.613Z,1.27
2023-04-30T12:06:03.210Z,1.30
2023-04-30T12:08:34.752Z,1.27
2023-04-30T12:11:06.248Z,1.00
2023-04-30T12:13:38.057Z,1.25
2023-04-30T12:16:09.511Z,1.00
2023-04-30T12:18:41.497Z,0.90
2023-04-30T12:21:13.010Z,1.00
2023-04-30T12:23:44.691Z,1.30
2023-04-30T12:26:16.139Z,1.00
2023-04-30T12:28:48.031Z,0.88
2023-04-30T12:31:19.581Z,1.10
2023-04-30T12:33:51.070Z,1.10
2023-04-30T12:36:22.568Z,1.10
2023-04-30T12:38:54.097Z,1.20
2023-04-30T12:41:25.567Z,1.10
2023-04-30T12:43:57.052Z,1.20
2023-04-30T12:46:28.520Z,0.73
2023-04-30T12:49:00.488Z,1.20
2023-04-30T12:51:31.940Z,1.10
2023-04-30T12:54:03.670Z,0.90
2023-04-30T12:56:35.128Z,1.40
2023-04-30T12:59:06.964Z,1.10
2023-04-30T13:01:39.025Z,1.10
2023-04-30T13:04:10.531Z,0.80
2023-04-30T13:06:42.380Z,1.10
2023-04-30T13:09:13.988Z,0.80
2023-04-30T13:11:45.695Z,1.10
2023-04-30T13:14:17.162Z,1.23
2023-04-30T13:16:48.960Z,1.23
2023-04-30T13:19:20.441Z,1.03
2023-04-30T13:21:51.937Z,1.20
2023-04-30T13:24:23.408Z,1.15
2023-04-30T13:26:54.893Z,1.35
2023-04-30T13:29:26.381Z,1.10
2023-04-30T13:31:58.206Z,1.13
2023-04-30T13:34:29.685Z,1.30
2023-04-30T13:37:01.342Z,1.20
2023-04-30T13:39:32.806Z,1.20
2023-04-30T13:42:04.512Z,0.98
2023-04-30T13:44:36.012Z,1.10
2023-04-30T13:47:07.855Z,1.20
2023-04-30T13:49:39.494Z,1.17
2023-04-30T13:52:11.304Z,1.40
2023-04-30T13:54:42.933Z,1.07
2023-04-30T13:57:14.705Z,1.10
2023-04-30T13:59:46.267Z,0.70
2023-04-30T14:02:18.108Z,1.00
2023-04-30T14:05:02.079Z,1.07
2023-04-30T14:07:37.498Z,1.23
2023-04-30T14:10:08.995Z,0.95
2023-04-30T14:12:40.812Z,1.13
2023-04-30T14:15:12.327Z,1.20
2023-04-30T14:17:44.200Z,0.88
2023-04-30T14:20:15.693Z,0.95
2023-04-30T14:22:47.334Z,1.10
2023-04-30T14:25:18.795Z,0.95
2023-04-30T14:27:50.318Z,0.95
2023-04-30T14:30:21.804Z,1.20
2023-04-30T14:32:53.367Z,0.98
2023-04-30T14:35:24.820Z,1.00
2023-04-30T14:37:56.328Z,1.00
2023-04-30T14:40:27.810Z,0.90
2023-04-30T14:42:59.640Z,1.10
2023-04-30T14:45:31.136Z,1.50
2023-04-30T14:48:05.229Z,1.02
2023-04-30T14:50:37.057Z,1.10
2023-04-30T14:53:08.850Z,1.00
2023-04-30T14:55:40.369Z,0.77
2023-04-30T14:58:11.867Z,1.00
2023-04-30T15:00:43.317Z,1.08
2023-04-30T15:03:15.186Z,1.17
2023-04-30T15:05:46.733Z,1.08
2023-04-30T15:08:18.521Z,1.20
2023-04-30T15:10:49.988Z,0.90
2023-04-30T15:13:21.710Z,1.02
2023-04-30T15:15:53.254Z,1.10
2023-04-30T15:18:25.301Z,1.10
2023-04-30T15:20:56.741Z,1.10
2023-04-30T15:23:28.402Z,1.17
2023-04-30T15:25:59.838Z,1.40
2023-04-30T15:28:31.620Z,1.00
2023-04-30T15:31:03.083Z,0.97
2023-04-30T15:33:34.948Z,1.35
2023-04-30T15:36:06.494Z,1.02
2023-04-30T15:38:37.966Z,1.15
2023-04-30T15:41:09.414Z,1.23
2023-04-30T15:43:41.228Z,1.13
2023-04-30T15:46:12.705Z,1.20
2023-04-30T15:48:44.203Z,0.73
2023-04-30T15:51:15.653Z,1.17
2023-04-30T15:53:47.506Z,1.00
2023-04-30T15:56:18.980Z,1.20
2023-04-30T15:58:50.430Z,1.00
2023-04-30T16:01:21.938Z,1.52
2023-04-30T16:03:53.474Z,1.20
2023-04-30T16:06:24.991Z,0.80
2023-04-30T16:08:56.479Z,1.27
2023-04-30T16:11:27.925Z,1.08
2023-04-30T16:13:59.917Z,1.13
2023-04-30T16:16:31.419Z,0.98
2023-04-30T16:19:03.221Z,1.10
2023-04-30T16:21:36.616Z,0.75
2023-04-30T16:24:08.912Z,1.08
2023-04-30T16:26:40.420Z,1.02
2023-04-30T16:29:12.238Z,0.70
2023-04-30T16:31:44.143Z,1.00
2023-04-30T16:34:15.620Z,1.00
2023-04-30T16:36:47.399Z,0.90
2023-04-30T16:39:18.848Z,1.02
2023-04-30T16:41:50.325Z,0.82
2023-04-30T16:44:21.816Z,0.70
2023-04-30T16:46:53.303Z,0.68
2023-04-30T16:49:24.832Z,0.70
2023-04-30T16:51:56.289Z,0.57
2023-04-30T16:54:27.784Z,1.02
2023-04-30T16:56:59.618Z,0.88
2023-04-30T16:59:31.137Z,0.70
2023-04-30T17:02:02.649Z,0.70
2023-04-30T17:04:34.171Z,0.80
2023-04-30T17:07:05.988Z,0.73
2023-04-30T17:09:37.436Z,0.90
2023-04-30T17:12:09.087Z,1.20
2023-04-30T17:14:40.551Z,1.35
2023-04-30T17:17:12.376Z,0.50
2023-04-30T17:19:43.865Z,0.82
2023-04-30T17:22:15.724Z,0.70
2023-04-30T17:24:47.240Z,0.63
2023-04-30T17:27:20.124Z,0.70
2023-04-30T17:32:23.300Z,0.77
2023-04-30T17:34:54.744Z,0.80
2023-04-30T17:37:26.212Z,0.57
2023-04-30T17:39:57.913Z,0.68
2023-04-30T17:42:30.033Z,0.52
2023-04-30T17:45:01.492Z,0.65
2023-04-30T17:47:33.379Z,0.88
2023-04-30T17:50:04.926Z,0.88
2023-04-30T17:52:36.661Z,0.63
2023-04-30T17:55:08.229Z,0.68
2023-04-30T17:57:39.822Z,0.80
2023-04-30T18:00:11.282Z,0.75
2023-04-30T18:02:43.303Z,0.70
2023-04-30T18:05:14.946Z,0.70
2023-04-30T18:07:46.477Z,0.80
2023-04-30T18:10:17.975Z,0.47
2023-04-30T18:12:49.455Z,1.55
2023-04-30T18:15:20.928Z,0.63
2023-04-30T18:17:52.456Z,0.70
2023-04-30T18:20:23.948Z,0.50
2023-04-30T18:22:55.458Z,0.73
2023-04-30T18:25:26.917Z,0.70
2023-04-30T18:27:58.805Z,1.23
2023-04-30T18:30:30.245Z,1.13
2023-04-30T18:33:02.098Z,0.70
2023-04-30T18:35:33.579Z,1.00
2023-04-30T18:38:05.189Z,0.75
2023-04-30T18:40:36.655Z,1.00
2023-04-30T18:43:08.649Z,1.00
2023-04-30T18:45:40.104Z,0.80
2023-04-30T18:48:11.645Z,0.98
2023-04-30T18:50:43.416Z,1.45
2023-04-30T18:53:15.432Z,1.40
2023-04-30T18:55:46.935Z,1.30
2023-04-30T18:58:18.556Z,1.42
2023-04-30T19:00:50.029Z,1.40
2023-04-30T19:03:21.968Z,1.50
2023-04-30T19:05:53.458Z,1.40
2023-04-30T19:08:24.917Z,1.13
2023-04-30T19:10:56.406Z,1.00
2023-04-30T19:13:27.947Z,1.55
2023-04-30T19:15:59.465Z,1.13
2023-04-30T19:18:30.982Z,1.02
2023-04-30T19:21:02.432Z,1.20
2023-04-30T19:23:34.317Z,1.30
2023-04-30T19:26:05.820Z,1.40
2023-04-30T19:28:37.944Z,1.45
2023-04-30T19:31:09.559Z,1.27
2023-04-30T19:33:41.395Z,1.50
2023-04-30T19:36:12.844Z,1.20
2023-04-30T19:38:44.323Z,1.45
2023-04-30T19:41:15.769Z,1.52
2023-04-30T19:43:47.260Z,1.77
2023-04-30T19:46:18.783Z,2.10
2023-04-30T19:48:50.316Z,1.52
2023-04-30T19:51:21.784Z,1.55
2023-04-30T19:53:53.272Z,1.70
2023-04-30T19:56:24.701Z,1.60
2023-04-30T19:58:56.144Z,1.45
2023-04-30T20:01:27.627Z,1.40
2023-04-30T20:03:59.614Z,1.73
2023-04-30T20:06:31.720Z,1.50
2023-04-30T20:09:03.251Z,1.63
2023-04-30T20:11:34.754Z,1.40
2023-04-30T20:14:06.257Z,1.98
2023-04-30T20:16:37.832Z,2.53
2023-04-30T20:19:09.434Z,4.05
2023-04-30T20:21:41.378Z,3.28
2023-04-30T20:24:12.869Z,3.55
2023-04-30T20:26:44.342Z,3.85
2023-04-30T20:29:15.805Z,4.18
2023-04-30T20:31:47.302Z,3.30
2023-04-30T20:34:18.783Z,2.55
2023-04-30T20:36:50.265Z,2.53
2023-04-30T20:39:21.789Z,3.53
2023-04-30T20:41:53.271Z,2.25
2023-04-30T20:44:24.718Z,2.80
2023-04-30T20:46:56.298Z,2.70
2023-04-30T20:49:27.797Z,2.72
2023-04-30T20:51:59.588Z,2.30
2023-04-30T20:54:31.027Z,2.80
2023-04-30T20:57:02.646Z,2.50
2023-04-30T20:59:34.129Z,2.95
2023-04-30T21:02:05.627Z,3.25
2023-04-30T21:04:37.112Z,3.17
2023-04-30T21:07:08.850Z,1.98
2023-04-30T21:09:40.298Z,2.22
2023-04-30T21:12:12.104Z,3.05
2023-04-30T21:14:43.553Z,2.67
2023-04-30T21:17:15.522Z,2.40
2023-04-30T21:19:46.990Z,2.20
2023-04-30T21:22:18.761Z,2.92
2023-04-30T21:24:50.302Z,2.38
2023-04-30T21:27:21.996Z,3.25
2023-04-30T21:29:53.661Z,3.22
2023-04-30T21:32:25.358Z,2.67
2023-04-30T21:34:56.829Z,2.67
2023-04-30T21:37:28.355Z,3.05
2023-04-30T21:39:59.815Z,2.30
2023-04-30T21:42:31.619Z,2.78
2023-04-30T21:45:03.078Z,3.08
2023-04-30T21:47:34.870Z,2.88
2023-04-30T21:50:06.384Z,2.33
2023-04-30T21:52:38.166Z,1.70
2023-04-30T21:55:09.620Z,2.35
2023-04-30T21:57:41.297Z,2.88
2023-04-30T22:00:12.800Z,2.63
2023-04-30T22:02:44.578Z,2.50
2023-04-30T22:05:16.132Z,2.80
2023-04-30T22:07:47.779Z,2.88
2023-04-30T22:10:19.436Z,2.80
2023-04-30T22:12:50.959Z,2.10
2023-04-30T22:15:22.445Z,3.42
2023-04-30T22:17:54.022Z,2.70
2023-04-30T22:20:25.537Z,2.22
2023-04-30T22:22:57.024Z,2.08
2023-04-30T22:25:28.494Z,2.58
2023-04-30T22:28:00.284Z,2.58
2023-04-30T22:30:31.756Z,2.53
2023-04-30T22:33:03.580Z,2.95
2023-04-30T22:35:35.190Z,3.15
2023-04-30T22:38:06.694Z,2.33
2023-04-30T22:40:38.229Z,2.53
2023-04-30T22:43:09.881Z,3.38
2023-04-30T22:45:41.349Z,2.72
2023-04-30T22:48:12.957Z,2.28
2023-04-30T22:50:44.426Z,3.13
2023-04-30T22:53:16.236Z,2.70
2023-04-30T22:55:47.670Z,3.35
2023-04-30T22:58:19.187Z,2.60
2023-04-30T23:00:50.675Z,3.80
2023-04-30T23:03:22.400Z,3.75
2023-04-30T23:05:53.854Z,3.40
2023-04-30T23:08:25.299Z,2.80
2023-04-30T23:10:56.782Z,3.30
2023-04-30T23:13:28.723Z,4.03
2023-04-30T23:16:00.192Z,4.97
2023-04-30T23:18:32.192Z,2.95
2023-04-30T23:21:03.678Z,3.37
2023-04-30T23:23:35.444Z,2.13
2023-04-30T23:26:07.225Z,3.42
2023-04-30T23:28:38.676Z,3.45
2023-04-30T23:31:10.511Z,3.55
2023-04-30T23:33:42.011Z,3.20
2023-04-30T23:36:13.824Z,3.65
2023-04-30T23:38:45.338Z,2.92
2023-04-30T23:41:17.173Z,2.90
2023-04-30T23:43:48.614Z,3.55
2023-04-30T23:46:20.557Z,3.60
2023-04-30T23:48:52.051Z,2.87
2023-04-30T23:51:24.168Z,3.92
2023-04-30T23:53:55.632Z,3.22
2023-04-30T23:56:27.391Z,3.55
2023-04-30T23:58:58.863Z,3.55
